sensor_id;sensor_type;location;lat;lon;timestamp;temperature;humidity
27741;DHT22;15134;48.768;9.184;2022-12-18T00:00:43;-5.20;99.90
27741;DHT22;15134;48.768;9.184;2022-12-18T00:03:09;-5.20;99.90
27741;DHT22;15134;48.768;9.184;2022-12-18T00:05:36;-5.30;99.90
27741;DHT22;15134;48.768;9.184;2022-12-18T00:08:02;-5.30;99.90
27741;DHT22;15134;48.768;9.184;2022-12-18T00:10:28;-5.30;99.90
27741;DHT22;15134;48.768;9.184;2022-12-18T00:12:54;-5.40;99.90
27741;DHT22;15134;48.768;9.184;2022-12-18T00:15:20;-5.40;99.90
27741;DHT22;15134;48.768;9.184;2022-12-18T00:17:45;-5.40;99.90
27741;DHT22;15134;48.768;9.184;2022-12-18T00:20:11;-5.30;99.90
27741;DHT22;15134;48.768;9.184;2022-12-18T00:22:37;-5.30;99.90
27741;DHT22;15134;48.768;9.184;2022-12-18T00:25:03;-5.20;99.90
27741;DHT22;15134;48.768;9.184;2022-12-18T00:27:29;-5.30;99.90
27741;DHT22;15134;48.768;9.184;2022-12-18T00:29:54;-5.30;99.90
27741;DHT22;15134;48.768;9.184;2022-12-18T00:32:20;-5.30;99.90
27741;DHT22;15134;48.768;9.184;2022-12-18T00:34:46;-5.30;99.90
27741;DHT22;15134;48.768;9.184;2022-12-18T00:37:12;-5.40;99.90
27741;DHT22;15134;48.768;9.184;2022-12-18T00:39:37;-5.50;99.90
27741;DHT22;15134;48.768;9.184;2022-12-18T00:42:03;-5.50;99.90
27741;DHT22;15134;48.768;9.184;2022-12-18T00:44:47;-5.40;99.90
27741;DHT22;15134;48.768;9.184;2022-12-18T00:47:13;-5.40;99.90
27741;DHT22;15134;48.768;9.184;2022-12-18T00:49:39;-5.30;99.90
27741;DHT22;15134;48.768;9.184;2022-12-18T00:52:04;-5.30;99.90
27741;DHT22;15134;48.768;9.184;2022-12-18T00:54:30;-5.30;99.90
27741;DHT22;15134;48.768;9.184;2022-12-18T00:56:56;-5.30;99.90
27741;DHT22;15134;48.768;9.184;2022-12-18T00:59:21;-5.30;99.90
27741;DHT22;15134;48.768;9.184;2022-12-18T01:01:47;-5.30;99.90
27741;DHT22;15134;48.768;9.184;2022-12-18T01:04:13;-5.40;99.90
27741;DHT22;15134;48.768;9.184;2022-12-18T01:06:40;-5.50;99.90
27741;DHT22;15134;48.768;9.184;2022-12-18T01:09:06;-5.50;99.90
27741;DHT22;15134;48.768;9.184;2022-12-18T01:11:31;-5.60;99.90
27741;DHT22;15134;48.768;9.184;2022-12-18T01:13:57;-5.60;99.90
27741;DHT22;15134;48.768;9.184;2022-12-18T01:16:23;-5.50;99.90
27741;DHT22;15134;48.768;9.184;2022-12-18T01:18:52;-5.50;99.90
27741;DHT22;15134;48.768;9.184;2022-12-18T01:21:19;-5.50;99.90
27741;DHT22;15134;48.768;9.184;2022-12-18T01:23:44;-5.60;99.90
27741;DHT22;15134;48.768;9.184;2022-12-18T01:26:15;-5.70;99.90
27741;DHT22;15134;48.768;9.184;2022-12-18T01:28:42;-5.70;99.90
27741;DHT22;15134;48.768;9.184;2022-12-18T01:31:28;-5.60;99.90
27741;DHT22;15134;48.768;9.184;2022-12-18T01:33:54;-5.50;99.90
27741;DHT22;15134;48.768;9.184;2022-12-18T01:36:26;-5.50;99.90
27741;DHT22;15134;48.768;9.184;2022-12-18T01:38:52;-5.60;99.90
27741;DHT22;15134;48.768;9.184;2022-12-18T01:41:26;-5.70;99.90
27741;DHT22;15134;48.768;9.184;2022-12-18T01:43:57;-5.60;99.90
27741;DHT22;15134;48.768;9.184;2022-12-18T01:46:24;-5.50;99.90
27741;DHT22;15134;48.768;9.184;2022-12-18T01:48:56;-5.50;99.90
27741;DHT22;15134;48.768;9.184;2022-12-18T01:51:24;-5.50;99.90
27741;DHT22;15134;48.768;9.184;2022-12-18T01:53:51;-5.60;99.90
27741;DHT22;15134;48.768;9.184;2022-12-18T01:56:18;-5.50;99.90
27741;DHT22;15134;48.768;9.184;2022-12-18T01:59:04;-5.40;99.90
27741;DHT22;15134;48.768;9.184;2022-12-18T02:01:32;-5.30;99.90
27741;DHT22;15134;48.768;9.184;2022-12-18T02:04:20;-5.40;99.90
27741;DHT22;15134;48.768;9.184;2022-12-18T02:09:59;-5.40;99.90
27741;DHT22;15134;48.768;9.184;2022-12-18T02:12:34;-5.40;99.90
27741;DHT22;15134;48.768;9.184;2022-12-18T02:15:13;-5.30;99.90
27741;DHT22;15134;48.768;9.184;2022-12-18T02:17:57;-5.20;99.90
27741;DHT22;15134;48.768;9.184;2022-12-18T02:20:42;-5.20;99.90
27741;DHT22;15134;48.768;9.184;2022-12-18T02:26:45;-5.20;99.90
27741;DHT22;15134;48.768;9.184;2022-12-18T02:29:02;-5.10;99.90
27741;DHT22;15134;48.768;9.184;2022-12-18T02:31:36;-5.10;99.90
27741;DHT22;15134;48.768;9.184;2022-12-18T02:34:06;-5.10;99.90
27741;DHT22;15134;48.768;9.184;2022-12-18T02:36:38;-5.10;99.90
27741;DHT22;15134;48.768;9.184;2022-12-18T02:39:07;-5.10;99.90
27741;DHT22;15134;48.768;9.184;2022-12-18T02:41:37;-5.10;99.90
27741;DHT22;15134;48.768;9.184;2022-12-18T02:44:08;-5.10;99.90
27741;DHT22;15134;48.768;9.184;2022-12-18T02:46:39;-5.10;99.90
27741;DHT22;15134;48.768;9.184;2022-12-18T02:57:48;-5.30;99.90
27741;DHT22;15134;48.768;9.184;2022-12-18T03:00:31;-5.30;99.90
27741;DHT22;15134;48.768;9.184;2022-12-18T03:03:16;-5.20;99.90
27741;DHT22;15134;48.768;9.184;2022-12-18T03:08:22;-5.20;99.90
27741;DHT22;15134;48.768;9.184;2022-12-18T03:10:54;-5.30;99.90
27741;DHT22;15134;48.768;9.184;2022-12-18T03:13:42;-5.40;99.90
27741;DHT22;15134;48.768;9.184;2022-12-18T03:16:17;-5.40;99.90
27741;DHT22;15134;48.768;9.184;2022-12-18T03:19:00;-5.60;99.90
27741;DHT22;15134;48.768;9.184;2022-12-18T03:21:44;-5.60;99.90
27741;DHT22;15134;48.768;9.184;2022-12-18T03:24:15;-5.60;99.90
27741;DHT22;15134;48.768;9.184;2022-12-18T03:26:46;-5.50;99.90
27741;DHT22;15134;48.768;9.184;2022-12-18T03:29:19;-5.40;99.90
27741;DHT22;15134;48.768;9.184;2022-12-18T03:31:51;-5.40;99.90
27741;DHT22;15134;48.768;9.184;2022-12-18T03:34:30;-5.30;99.90
27741;DHT22;15134;48.768;9.184;2022-12-18T03:37:02;-5.30;99.90
27741;DHT22;15134;48.768;9.184;2022-12-18T03:39:30;-5.30;99.90
27741;DHT22;15134;48.768;9.184;2022-12-18T03:42:05;-5.30;99.90
27741;DHT22;15134;48.768;9.184;2022-12-18T03:47:56;-5.50;99.90
27741;DHT22;15134;48.768;9.184;2022-12-18T03:50:46;-5.50;99.90
27741;DHT22;15134;48.768;9.184;2022-12-18T03:56:36;-5.70;99.90
27741;DHT22;15134;48.768;9.184;2022-12-18T03:59:05;-5.90;99.90
27741;DHT22;15134;48.768;9.184;2022-12-18T04:01:37;-6.10;99.90
27741;DHT22;15134;48.768;9.184;2022-12-18T04:04:04;-6.20;99.90
27741;DHT22;15134;48.768;9.184;2022-12-18T04:06:34;-6.20;99.90
27741;DHT22;15134;48.768;9.184;2022-12-18T04:09:01;-6.30;99.90
27741;DHT22;15134;48.768;9.184;2022-12-18T04:11:28;-6.40;99.90
27741;DHT22;15134;48.768;9.184;2022-12-18T04:13:57;-6.50;99.90
27741;DHT22;15134;48.768;9.184;2022-12-18T04:16:27;-6.40;99.90
27741;DHT22;15134;48.768;9.184;2022-12-18T04:18:56;-6.50;99.90
27741;DHT22;15134;48.768;9.184;2022-12-18T04:21:23;-6.60;99.90
27741;DHT22;15134;48.768;9.184;2022-12-18T04:23:49;-6.70;99.90
27741;DHT22;15134;48.768;9.184;2022-12-18T04:26:16;-6.70;99.90
27741;DHT22;15134;48.768;9.184;2022-12-18T04:29:02;-6.70;99.90
27741;DHT22;15134;48.768;9.184;2022-12-18T04:31:28;-6.80;99.90
27741;DHT22;15134;48.768;9.184;2022-12-18T04:33:54;-6.80;99.90
27741;DHT22;15134;48.768;9.184;2022-12-18T04:36:21;-6.80;99.90
27741;DHT22;15134;48.768;9.184;2022-12-18T04:38:47;-6.90;99.90
27741;DHT22;15134;48.768;9.184;2022-12-18T04:41:15;-7.00;99.90
27741;DHT22;15134;48.768;9.184;2022-12-18T04:43:42;-7.00;99.90
27741;DHT22;15134;48.768;9.184;2022-12-18T04:46:08;-6.90;99.90
27741;DHT22;15134;48.768;9.184;2022-12-18T04:48:34;-7.00;99.90
27741;DHT22;15134;48.768;9.184;2022-12-18T04:51:01;-7.00;99.90
27741;DHT22;15134;48.768;9.184;2022-12-18T04:53:27;-7.00;99.90
27741;DHT22;15134;48.768;9.184;2022-12-18T04:56:06;-7.10;99.90
27741;DHT22;15134;48.768;9.184;2022-12-18T04:58:32;-7.10;99.90
27741;DHT22;15134;48.768;9.184;2022-12-18T05:00:58;-7.10;99.90
27741;DHT22;15134;48.768;9.184;2022-12-18T05:03:24;-7.20;99.90
27741;DHT22;15134;48.768;9.184;2022-12-18T05:05:50;-7.40;99.90
27741;DHT22;15134;48.768;9.184;2022-12-18T05:08:17;-7.40;99.90
27741;DHT22;15134;48.768;9.184;2022-12-18T05:10:42;-7.50;99.90
27741;DHT22;15134;48.768;9.184;2022-12-18T05:13:08;-7.50;99.90
27741;DHT22;15134;48.768;9.184;2022-12-18T05:15:34;-7.50;99.90
27741;DHT22;15134;48.768;9.184;2022-12-18T05:18:00;-7.40;99.90
27741;DHT22;15134;48.768;9.184;2022-12-18T05:20:27;-7.30;99.90
27741;DHT22;15134;48.768;9.184;2022-12-18T05:22:53;-7.20;99.90
27741;DHT22;15134;48.768;9.184;2022-12-18T05:25:20;-7.10;99.90
27741;DHT22;15134;48.768;9.184;2022-12-18T05:27:46;-7.00;99.90
27741;DHT22;15134;48.768;9.184;2022-12-18T05:30:12;-7.10;99.90
27741;DHT22;15134;48.768;9.184;2022-12-18T05:32:39;-7.10;99.90
27741;DHT22;15134;48.768;9.184;2022-12-18T05:35:06;-7.10;99.90
27741;DHT22;15134;48.768;9.184;2022-12-18T05:37:32;-7.30;99.90
27741;DHT22;15134;48.768;9.184;2022-12-18T05:39:58;-7.30;99.90
27741;DHT22;15134;48.768;9.184;2022-12-18T05:42:24;-7.20;99.90
27741;DHT22;15134;48.768;9.184;2022-12-18T05:44:49;-7.20;99.90
27741;DHT22;15134;48.768;9.184;2022-12-18T05:47:15;-7.30;99.90
27741;DHT22;15134;48.768;9.184;2022-12-18T05:49:41;-7.50;99.90
27741;DHT22;15134;48.768;9.184;2022-12-18T05:52:07;-7.50;99.90
27741;DHT22;15134;48.768;9.184;2022-12-18T05:54:32;-7.40;99.90
27741;DHT22;15134;48.768;9.184;2022-12-18T05:56:58;-7.40;99.90
27741;DHT22;15134;48.768;9.184;2022-12-18T05:59:24;-7.50;99.90
27741;DHT22;15134;48.768;9.184;2022-12-18T06:01:50;-7.60;99.90
27741;DHT22;15134;48.768;9.184;2022-12-18T06:04:16;-7.60;99.90
27741;DHT22;15134;48.768;9.184;2022-12-18T06:06:41;-7.70;99.90
27741;DHT22;15134;48.768;9.184;2022-12-18T06:09:07;-7.70;99.90
27741;DHT22;15134;48.768;9.184;2022-12-18T06:11:36;-7.60;99.90
27741;DHT22;15134;48.768;9.184;2022-12-18T06:14:03;-7.40;99.90
27741;DHT22;15134;48.768;9.184;2022-12-18T06:16:30;-7.30;99.90
27741;DHT22;15134;48.768;9.184;2022-12-18T06:19:00;-7.10;99.90
27741;DHT22;15134;48.768;9.184;2022-12-18T06:21:27;-7.00;99.90
27741;DHT22;15134;48.768;9.184;2022-12-18T06:23:53;-6.90;99.90
27741;DHT22;15134;48.768;9.184;2022-12-18T06:26:18;-6.80;99.90
27741;DHT22;15134;48.768;9.184;2022-12-18T06:28:44;-6.80;99.90
27741;DHT22;15134;48.768;9.184;2022-12-18T06:31:10;-6.80;99.90
27741;DHT22;15134;48.768;9.184;2022-12-18T06:33:36;-6.80;99.90
27741;DHT22;15134;48.768;9.184;2022-12-18T06:36:05;-6.70;99.90
27741;DHT22;15134;48.768;9.184;2022-12-18T06:38:32;-6.60;99.90
27741;DHT22;15134;48.768;9.184;2022-12-18T06:40:58;-6.60;99.90
27741;DHT22;15134;48.768;9.184;2022-12-18T06:43:24;-6.60;99.90
27741;DHT22;15134;48.768;9.184;2022-12-18T06:45:49;-6.60;99.90
27741;DHT22;15134;48.768;9.184;2022-12-18T06:48:21;-6.60;99.90
27741;DHT22;15134;48.768;9.184;2022-12-18T06:50:47;-6.60;99.90
27741;DHT22;15134;48.768;9.184;2022-12-18T06:53:13;-6.60;99.90
27741;DHT22;15134;48.768;9.184;2022-12-18T06:55:39;-6.60;99.90
27741;DHT22;15134;48.768;9.184;2022-12-18T06:58:04;-6.60;99.90
27741;DHT22;15134;48.768;9.184;2022-12-18T07:00:30;-6.70;99.90
27741;DHT22;15134;48.768;9.184;2022-12-18T07:02:56;-6.70;99.90
27741;DHT22;15134;48.768;9.184;2022-12-18T07:05:21;-6.70;99.90
27741;DHT22;15134;48.768;9.184;2022-12-18T07:07:48;-6.70;99.90
27741;DHT22;15134;48.768;9.184;2022-12-18T07:10:14;-6.70;99.90
27741;DHT22;15134;48.768;9.184;2022-12-18T07:12:39;-6.60;99.90
27741;DHT22;15134;48.768;9.184;2022-12-18T07:15:05;-6.60;99.90
27741;DHT22;15134;48.768;9.184;2022-12-18T07:17:31;-6.60;99.90
27741;DHT22;15134;48.768;9.184;2022-12-18T07:19:57;-6.70;99.90
27741;DHT22;15134;48.768;9.184;2022-12-18T07:22:25;-6.80;99.90
27741;DHT22;15134;48.768;9.184;2022-12-18T07:24:51;-6.70;99.90
27741;DHT22;15134;48.768;9.184;2022-12-18T07:27:16;-6.70;99.90
27741;DHT22;15134;48.768;9.184;2022-12-18T07:29:42;-6.70;99.90
27741;DHT22;15134;48.768;9.184;2022-12-18T07:32:08;-6.60;99.90
27741;DHT22;15134;48.768;9.184;2022-12-18T07:34:34;-6.60;99.90
27741;DHT22;15134;48.768;9.184;2022-12-18T07:37:00;-6.50;99.90
27741;DHT22;15134;48.768;9.184;2022-12-18T07:39:26;-6.40;99.90
27741;DHT22;15134;48.768;9.184;2022-12-18T07:41:52;-6.40;99.90
27741;DHT22;15134;48.768;9.184;2022-12-18T07:44:39;-6.50;99.90
27741;DHT22;15134;48.768;9.184;2022-12-18T07:47:05;-6.50;99.90
27741;DHT22;15134;48.768;9.184;2022-12-18T07:49:30;-6.50;99.90
27741;DHT22;15134;48.768;9.184;2022-12-18T07:51:57;-6.40;99.90
27741;DHT22;15134;48.768;9.184;2022-12-18T07:54:23;-6.40;99.90
27741;DHT22;15134;48.768;9.184;2022-12-18T07:56:50;-6.30;99.90
27741;DHT22;15134;48.768;9.184;2022-12-18T07:59:16;-6.30;99.90
27741;DHT22;15134;48.768;9.184;2022-12-18T08:01:42;-6.20;99.90
27741;DHT22;15134;48.768;9.184;2022-12-18T08:04:07;-6.20;99.90
27741;DHT22;15134;48.768;9.184;2022-12-18T08:06:33;-6.20;99.90
27741;DHT22;15134;48.768;9.184;2022-12-18T08:08:59;-6.20;99.90
27741;DHT22;15134;48.768;9.184;2022-12-18T08:11:26;-6.20;99.90
27741;DHT22;15134;48.768;9.184;2022-12-18T08:13:52;-6.30;99.90
27741;DHT22;15134;48.768;9.184;2022-12-18T08:16:19;-6.30;99.90
27741;DHT22;15134;48.768;9.184;2022-12-18T08:18:44;-6.20;99.90
27741;DHT22;15134;48.768;9.184;2022-12-18T08:21:12;-6.20;99.90
27741;DHT22;15134;48.768;9.184;2022-12-18T08:23:38;-6.20;99.90
27741;DHT22;15134;48.768;9.184;2022-12-18T08:26:05;-6.10;99.90
27741;DHT22;15134;48.768;9.184;2022-12-18T08:28:30;-6.10;99.90
27741;DHT22;15134;48.768;9.184;2022-12-18T08:30:56;-6.00;99.90
27741;DHT22;15134;48.768;9.184;2022-12-18T08:33:22;-5.90;99.90
27741;DHT22;15134;48.768;9.184;2022-12-18T08:35:48;-6.00;99.90
27741;DHT22;15134;48.768;9.184;2022-12-18T08:38:13;-6.00;99.90
27741;DHT22;15134;48.768;9.184;2022-12-18T08:40:39;-6.00;99.90
27741;DHT22;15134;48.768;9.184;2022-12-18T08:43:05;-5.90;99.90
27741;DHT22;15134;48.768;9.184;2022-12-18T08:45:49;-5.90;99.90
27741;DHT22;15134;48.768;9.184;2022-12-18T08:48:15;-5.80;99.90
27741;DHT22;15134;48.768;9.184;2022-12-18T08:50:40;-5.70;99.90
27741;DHT22;15134;48.768;9.184;2022-12-18T08:53:06;-5.60;99.90
27741;DHT22;15134;48.768;9.184;2022-12-18T08:55:32;-5.50;99.90
27741;DHT22;15134;48.768;9.184;2022-12-18T08:57:58;-5.40;99.90
27741;DHT22;15134;48.768;9.184;2022-12-18T09:00:23;-5.40;99.90
27741;DHT22;15134;48.768;9.184;2022-12-18T09:02:49;-5.50;99.90
27741;DHT22;15134;48.768;9.184;2022-12-18T09:05:15;-5.50;99.90
27741;DHT22;15134;48.768;9.184;2022-12-18T09:07:40;-5.40;99.90
27741;DHT22;15134;48.768;9.184;2022-12-18T09:10:06;-5.40;99.90
27741;DHT22;15134;48.768;9.184;2022-12-18T09:12:32;-5.30;99.90
27741;DHT22;15134;48.768;9.184;2022-12-18T09:14:58;-5.30;99.90
27741;DHT22;15134;48.768;9.184;2022-12-18T09:17:23;-5.30;99.90
27741;DHT22;15134;48.768;9.184;2022-12-18T09:19:50;-5.30;99.90
27741;DHT22;15134;48.768;9.184;2022-12-18T09:22:16;-5.30;99.90
27741;DHT22;15134;48.768;9.184;2022-12-18T09:24:41;-5.30;99.90
27741;DHT22;15134;48.768;9.184;2022-12-18T09:27:07;-5.30;99.90
27741;DHT22;15134;48.768;9.184;2022-12-18T09:29:33;-5.30;99.90
27741;DHT22;15134;48.768;9.184;2022-12-18T09:31:58;-5.30;99.90
27741;DHT22;15134;48.768;9.184;2022-12-18T09:34:24;-5.30;99.90
27741;DHT22;15134;48.768;9.184;2022-12-18T09:36:50;-5.30;99.90
27741;DHT22;15134;48.768;9.184;2022-12-18T09:39:15;-5.20;99.90
27741;DHT22;15134;48.768;9.184;2022-12-18T09:41:46;-5.20;99.90
27741;DHT22;15134;48.768;9.184;2022-12-18T09:44:29;-5.10;99.90
27741;DHT22;15134;48.768;9.184;2022-12-18T09:49:45;-5.00;99.90
27741;DHT22;15134;48.768;9.184;2022-12-18T09:52:33;-4.90;99.90
27741;DHT22;15134;48.768;9.184;2022-12-18T09:57:45;-4.70;99.90
27741;DHT22;15134;48.768;9.184;2022-12-18T10:00:18;-4.60;99.90
27741;DHT22;15134;48.768;9.184;2022-12-18T10:02:44;-4.60;99.90
27741;DHT22;15134;48.768;9.184;2022-12-18T10:05:20;-4.50;99.90
27741;DHT22;15134;48.768;9.184;2022-12-18T10:10:46;-4.50;99.90
27741;DHT22;15134;48.768;9.184;2022-12-18T10:13:34;-4.50;99.90
27741;DHT22;15134;48.768;9.184;2022-12-18T10:21:11;-4.30;99.90
27741;DHT22;15134;48.768;9.184;2022-12-18T10:26:16;-4.30;99.90
27741;DHT22;15134;48.768;9.184;2022-12-18T10:28:43;-4.20;99.90
27741;DHT22;15134;48.768;9.184;2022-12-18T10:31:16;-4.00;99.90
27741;DHT22;15134;48.768;9.184;2022-12-18T10:33:42;-4.00;99.90
27741;DHT22;15134;48.768;9.184;2022-12-18T10:36:09;-4.00;99.90
27741;DHT22;15134;48.768;9.184;2022-12-18T10:38:34;-4.00;99.90
27741;DHT22;15134;48.768;9.184;2022-12-18T10:41:03;-4.00;99.90
27741;DHT22;15134;48.768;9.184;2022-12-18T10:46:01;-3.90;99.90
27741;DHT22;15134;48.768;9.184;2022-12-18T10:48:28;-3.90;99.90
27741;DHT22;15134;48.768;9.184;2022-12-18T10:50:56;-3.90;99.90
27741;DHT22;15134;48.768;9.184;2022-12-18T10:53:26;-3.80;99.90
27741;DHT22;15134;48.768;9.184;2022-12-18T10:55:54;-3.70;99.90
27741;DHT22;15134;48.768;9.184;2022-12-18T10:58:33;-3.60;99.90
27741;DHT22;15134;48.768;9.184;2022-12-18T11:01:13;-3.40;99.90
27741;DHT22;15134;48.768;9.184;2022-12-18T11:03:47;-3.30;99.90
27741;DHT22;15134;48.768;9.184;2022-12-18T11:06:24;-3.10;99.90
27741;DHT22;15134;48.768;9.184;2022-12-18T11:09:03;-3.00;99.90
27741;DHT22;15134;48.768;9.184;2022-12-18T11:11:29;-2.90;99.90
27741;DHT22;15134;48.768;9.184;2022-12-18T11:14:12;-2.90;99.90
27741;DHT22;15134;48.768;9.184;2022-12-18T11:16:46;-2.90;99.90
27741;DHT22;15134;48.768;9.184;2022-12-18T11:19:33;-2.80;99.90
27741;DHT22;15134;48.768;9.184;2022-12-18T11:22:00;-2.70;99.90
27741;DHT22;15134;48.768;9.184;2022-12-18T11:24:28;-2.70;99.90
27741;DHT22;15134;48.768;9.184;2022-12-18T11:26:55;-2.60;99.90
27741;DHT22;15134;48.768;9.184;2022-12-18T11:29:38;-2.50;99.90
27741;DHT22;15134;48.768;9.184;2022-12-18T11:32:38;-2.30;99.90
27741;DHT22;15134;48.768;9.184;2022-12-18T11:35:40;-2.30;99.90
27741;DHT22;15134;48.768;9.184;2022-12-18T11:38:27;-2.30;99.90
27741;DHT22;15134;48.768;9.184;2022-12-18T11:46:15;-2.30;99.90
27741;DHT22;15134;48.768;9.184;2022-12-18T11:49:03;-2.30;99.90
27741;DHT22;15134;48.768;9.184;2022-12-18T11:51:37;-2.30;99.90
27741;DHT22;15134;48.768;9.184;2022-12-18T11:54:13;-2.30;99.90
27741;DHT22;15134;48.768;9.184;2022-12-18T11:56:49;-2.20;99.90
27741;DHT22;15134;48.768;9.184;2022-12-18T12:04:43;-1.90;99.90
27741;DHT22;15134;48.768;9.184;2022-12-18T12:18:18;-1.70;99.90
27741;DHT22;15134;48.768;9.184;2022-12-18T12:27:13;-1.60;99.90
27741;DHT22;15134;48.768;9.184;2022-12-18T12:33:00;-1.70;99.90
27741;DHT22;15134;48.768;9.184;2022-12-18T12:35:42;-1.60;99.90
27741;DHT22;15134;48.768;9.184;2022-12-18T12:38:29;-1.50;99.90
27741;DHT22;15134;48.768;9.184;2022-12-18T12:41:06;-1.40;99.90
27741;DHT22;15134;48.768;9.184;2022-12-18T12:43:53;-1.40;99.90
27741;DHT22;15134;48.768;9.184;2022-12-18T12:46:21;-1.30;99.90
27741;DHT22;15134;48.768;9.184;2022-12-18T12:48:57;-1.20;99.90
27741;DHT22;15134;48.768;9.184;2022-12-18T12:51:25;-1.30;99.90
27741;DHT22;15134;48.768;9.184;2022-12-18T12:53:52;-1.30;99.90
27741;DHT22;15134;48.768;9.184;2022-12-18T12:56:20;-1.30;99.90
27741;DHT22;15134;48.768;9.184;2022-12-18T12:59:04;-1.30;99.90
27741;DHT22;15134;48.768;9.184;2022-12-18T13:04:22;-1.20;99.90
27741;DHT22;15134;48.768;9.184;2022-12-18T13:07:04;-1.20;99.90
27741;DHT22;15134;48.768;9.184;2022-12-18T13:09:33;-1.10;99.90
27741;DHT22;15134;48.768;9.184;2022-12-18T13:12:11;-1.10;99.90
27741;DHT22;15134;48.768;9.184;2022-12-18T13:15:21;-1.00;99.90
27741;DHT22;15134;48.768;9.184;2022-12-18T13:17:48;-1.00;99.90
27741;DHT22;15134;48.768;9.184;2022-12-18T13:20:15;-1.00;99.90
27741;DHT22;15134;48.768;9.184;2022-12-18T13:22:46;-1.00;99.90
27741;DHT22;15134;48.768;9.184;2022-12-18T13:25:35;-0.90;99.90
27741;DHT22;15134;48.768;9.184;2022-12-18T13:35:41;-0.90;99.90
27741;DHT22;15134;48.768;9.184;2022-12-18T13:38:22;-0.80;99.90
27741;DHT22;15134;48.768;9.184;2022-12-18T13:45:46;-0.70;99.90
27741;DHT22;15134;48.768;9.184;2022-12-18T13:48:21;-0.70;99.90
27741;DHT22;15134;48.768;9.184;2022-12-18T13:53:27;-0.70;99.90
27741;DHT22;15134;48.768;9.184;2022-12-18T13:55:54;-0.70;99.90
27741;DHT22;15134;48.768;9.184;2022-12-18T13:58:20;-0.80;99.90
27741;DHT22;15134;48.768;9.184;2022-12-18T14:00:46;-0.80;99.90
27741;DHT22;15134;48.768;9.184;2022-12-18T14:03:24;-0.80;99.90
27741;DHT22;15134;48.768;9.184;2022-12-18T14:06:03;-0.80;99.90
27741;DHT22;15134;48.768;9.184;2022-12-18T14:08:34;-0.90;99.90
27741;DHT22;15134;48.768;9.184;2022-12-18T14:11:01;-0.90;99.90
27741;DHT22;15134;48.768;9.184;2022-12-18T14:13:35;-0.90;99.90
27741;DHT22;15134;48.768;9.184;2022-12-18T14:16:04;-1.00;99.90
27741;DHT22;15134;48.768;9.184;2022-12-18T14:21:18;-1.00;99.90
27741;DHT22;15134;48.768;9.184;2022-12-18T14:23:45;-1.00;99.90
27741;DHT22;15134;48.768;9.184;2022-12-18T14:26:30;-1.00;99.90
27741;DHT22;15134;48.768;9.184;2022-12-18T14:29:00;-1.00;99.90
27741;DHT22;15134;48.768;9.184;2022-12-18T14:31:29;-1.10;99.90
27741;DHT22;15134;48.768;9.184;2022-12-18T14:33:55;-1.10;99.90
27741;DHT22;15134;48.768;9.184;2022-12-18T14:36:30;-1.10;99.90
27741;DHT22;15134;48.768;9.184;2022-12-18T14:38:57;-1.20;99.90
27741;DHT22;15134;48.768;9.184;2022-12-18T14:41:24;-1.20;99.90
27741;DHT22;15134;48.768;9.184;2022-12-18T14:43:52;-1.30;99.90
27741;DHT22;15134;48.768;9.184;2022-12-18T14:48:57;-1.40;99.90
27741;DHT22;15134;48.768;9.184;2022-12-18T14:51:27;-1.40;99.90
27741;DHT22;15134;48.768;9.184;2022-12-18T14:59:05;-1.40;99.90
27741;DHT22;15134;48.768;9.184;2022-12-18T15:01:44;-1.40;99.90
27741;DHT22;15134;48.768;9.184;2022-12-18T15:04:27;-1.50;99.90
27741;DHT22;15134;48.768;9.184;2022-12-18T15:07:19;-1.60;99.90
27741;DHT22;15134;48.768;9.184;2022-12-18T15:13:08;-1.70;99.90
27741;DHT22;15134;48.768;9.184;2022-12-18T15:18:03;-1.80;99.90
27741;DHT22;15134;48.768;9.184;2022-12-18T15:23:26;-1.90;99.90
27741;DHT22;15134;48.768;9.184;2022-12-18T15:26:03;-1.90;99.90
27741;DHT22;15134;48.768;9.184;2022-12-18T15:28:45;-2.00;99.90
27741;DHT22;15134;48.768;9.184;2022-12-18T15:33:59;-2.10;99.90
27741;DHT22;15134;48.768;9.184;2022-12-18T15:36:26;-2.10;99.90
27741;DHT22;15134;48.768;9.184;2022-12-18T15:38:53;-2.00;99.90
27741;DHT22;15134;48.768;9.184;2022-12-18T15:41:21;-2.00;99.90
27741;DHT22;15134;48.768;9.184;2022-12-18T15:43:48;-2.00;99.90
27741;DHT22;15134;48.768;9.184;2022-12-18T15:46:23;-2.00;99.90
27741;DHT22;15134;48.768;9.184;2022-12-18T15:48:51;-2.00;99.90
27741;DHT22;15134;48.768;9.184;2022-12-18T15:51:20;-2.00;99.90
27741;DHT22;15134;48.768;9.184;2022-12-18T15:53:52;-2.00;99.90
27741;DHT22;15134;48.768;9.184;2022-12-18T15:56:19;-2.00;99.90
27741;DHT22;15134;48.768;9.184;2022-12-18T15:59:11;-2.00;99.90
27741;DHT22;15134;48.768;9.184;2022-12-18T16:01:39;-2.10;99.90
27741;DHT22;15134;48.768;9.184;2022-12-18T16:04:05;-2.10;99.90
27741;DHT22;15134;48.768;9.184;2022-12-18T16:06:31;-2.00;99.90
27741;DHT22;15134;48.768;9.184;2022-12-18T16:08:56;-2.00;99.90
27741;DHT22;15134;48.768;9.184;2022-12-18T16:11:25;-2.10;99.90
27741;DHT22;15134;48.768;9.184;2022-12-18T16:14:28;-2.10;99.90
27741;DHT22;15134;48.768;9.184;2022-12-18T16:16:57;-2.10;99.90
27741;DHT22;15134;48.768;9.184;2022-12-18T16:19:24;-2.10;99.90
27741;DHT22;15134;48.768;9.184;2022-12-18T16:21:55;-2.10;99.90
27741;DHT22;15134;48.768;9.184;2022-12-18T16:24:26;-2.10;99.90
27741;DHT22;15134;48.768;9.184;2022-12-18T16:26:52;-2.10;99.90
27741;DHT22;15134;48.768;9.184;2022-12-18T16:29:19;-2.10;99.90
27741;DHT22;15134;48.768;9.184;2022-12-18T16:31:50;-2.10;99.90
27741;DHT22;15134;48.768;9.184;2022-12-18T16:34:22;-2.10;99.90
27741;DHT22;15134;48.768;9.184;2022-12-18T16:36:52;-2.10;99.90
27741;DHT22;15134;48.768;9.184;2022-12-18T16:39:19;-2.10;99.90
27741;DHT22;15134;48.768;9.184;2022-12-18T16:41:45;-2.10;99.90
27741;DHT22;15134;48.768;9.184;2022-12-18T16:44:11;-2.10;99.90
27741;DHT22;15134;48.768;9.184;2022-12-18T16:46:37;-2.10;99.90
27741;DHT22;15134;48.768;9.184;2022-12-18T16:49:04;-2.20;99.90
27741;DHT22;15134;48.768;9.184;2022-12-18T16:51:30;-2.20;99.90
27741;DHT22;15134;48.768;9.184;2022-12-18T16:53:56;-2.20;99.90
27741;DHT22;15134;48.768;9.184;2022-12-18T16:56:22;-2.20;99.90
27741;DHT22;15134;48.768;9.184;2022-12-18T16:58:53;-2.20;99.90
27741;DHT22;15134;48.768;9.184;2022-12-18T17:01:19;-2.20;99.90
27741;DHT22;15134;48.768;9.184;2022-12-18T17:03:51;-2.20;99.90
27741;DHT22;15134;48.768;9.184;2022-12-18T17:06:17;-2.30;99.90
27741;DHT22;15134;48.768;9.184;2022-12-18T17:08:43;-2.20;99.90
27741;DHT22;15134;48.768;9.184;2022-12-18T17:11:09;-2.20;99.90
27741;DHT22;15134;48.768;9.184;2022-12-18T17:13:35;-2.20;99.90
27741;DHT22;15134;48.768;9.184;2022-12-18T17:16:05;-2.30;99.90
27741;DHT22;15134;48.768;9.184;2022-12-18T17:18:32;-2.40;99.90
27741;DHT22;15134;48.768;9.184;2022-12-18T17:20:59;-2.40;99.90
27741;DHT22;15134;48.768;9.184;2022-12-18T17:23:26;-2.30;99.90
27741;DHT22;15134;48.768;9.184;2022-12-18T17:25:59;-2.40;99.90
27741;DHT22;15134;48.768;9.184;2022-12-18T17:28:25;-2.50;99.90
27741;DHT22;15134;48.768;9.184;2022-12-18T17:30:54;-2.50;99.90
27741;DHT22;15134;48.768;9.184;2022-12-18T17:33:21;-2.50;99.90
27741;DHT22;15134;48.768;9.184;2022-12-18T17:35:46;-2.60;99.90
27741;DHT22;15134;48.768;9.184;2022-12-18T17:38:13;-2.50;99.90
27741;DHT22;15134;48.768;9.184;2022-12-18T17:40:39;-2.60;99.90